createdAt,value
2023-05-18T00:01:43.218Z,60.47
2023-05-18T00:04:11.033Z,60.40
2023-05-18T00:06:42.486Z,59.15
2023-05-18T00:09:10.727Z,62.16
2023-05-18T00:11:41.145Z,60.14
2023-05-18T00:14:08.702Z,60.22
2023-05-18T00:16:36.271Z,59.91
2023-05-18T00:19:05.205Z,60.59
2023-05-18T00:21:33.766Z,62.20
2023-05-18T00:24:01.528Z,63.60
2023-05-18T00:26:29.138Z,64.06
2023-05-18T00:28:56.624Z,63.64
2023-05-18T00:31:24.360Z,63.81
2023-05-18T00:33:54.944Z,62.68
2023-05-18T00:36:24.069Z,64.17
2023-05-18T00:38:51.641Z,64.23
2023-05-18T00:41:19.336Z,64.32
2023-05-18T00:43:47.059Z,61.09
2023-05-18T00:46:21.283Z,64.07
2023-05-18T00:48:50.628Z,62.42
2023-05-18T00:51:18.761Z,61.76
2023-05-18T00:53:48.345Z,62.23
2023-05-18T00:56:22.468Z,63.83
2023-05-18T00:58:51.123Z,61.78
2023-05-18T01:01:20.293Z,63.57
2023-05-18T01:03:57.533Z,62.76
2023-05-18T01:06:26.463Z,63.62
2023-05-18T01:08:56.111Z,63.58
2023-05-18T01:11:31.540Z,63.90
2023-05-18T01:14:05.211Z,66.17
2023-05-18T01:16:41.671Z,65.48
2023-05-18T01:19:28.515Z,63.86
2023-05-18T01:22:04.569Z,62.95
2023-05-18T01:24:39.685Z,64.39
2023-05-18T01:27:09.542Z,63.71
2023-05-18T01:29:48.466Z,64.25
2023-05-18T01:32:19.747Z,64.61
2023-05-18T01:34:47.812Z,64.58
2023-05-18T01:37:15.455Z,66.78
2023-05-18T01:39:43.332Z,68.11
2023-05-18T01:42:16.394Z,66.18
2023-05-18T01:44:48.874Z,65.13
2023-05-18T01:47:17.503Z,66.47
2023-05-18T01:49:49.033Z,63.99
2023-05-18T01:52:20.742Z,63.03
2023-05-18T01:54:53.301Z,63.80
2023-05-18T01:57:26.926Z,63.67
2023-05-18T01:59:55.401Z,63.56
2023-05-18T02:02:22.980Z,64.37
2023-05-18T02:04:50.585Z,64.03
2023-05-18T02:07:18.147Z,64.26
2023-05-18T02:09:45.828Z,62.62
2023-05-18T02:12:13.595Z,63.82
2023-05-18T02:14:42.464Z,63.04
2023-05-18T02:17:10.225Z,62.14
2023-05-18T02:19:38.738Z,63.57
2023-05-18T02:22:06.806Z,62.23
2023-05-18T02:24:34.336Z,62.63
2023-05-18T02:27:02.157Z,63.44
2023-05-18T02:29:29.644Z,64.16
2023-05-18T02:31:58.492Z,63.55
2023-05-18T02:34:27.460Z,62.37
2023-05-18T02:36:58.059Z,63.99
2023-05-18T02:39:25.637Z,62.38
2023-05-18T02:41:53.164Z,63.86
2023-05-18T02:44:20.721Z,64.57
2023-05-18T02:46:48.172Z,65.30
2023-05-18T02:49:17.025Z,66.78
2023-05-18T02:51:44.552Z,67.93
2023-05-18T02:54:12.234Z,67.08
2023-05-18T02:56:41.669Z,66.80
2023-05-18T02:59:09.206Z,67.44
2023-05-18T03:01:37.793Z,67.75
2023-05-18T03:04:05.733Z,67.10
2023-05-18T03:06:36.026Z,65.93
2023-05-18T03:09:03.516Z,66.34
2023-05-18T03:11:31.015Z,65.65
2023-05-18T03:13:58.515Z,66.78
2023-05-18T03:16:28.424Z,65.62
2023-05-18T03:18:58.869Z,64.60
2023-05-18T03:21:34.101Z,65.21
2023-05-18T03:24:03.350Z,64.80
2023-05-18T03:26:31.241Z,63.74
2023-05-18T03:28:58.953Z,64.07
2023-05-18T03:31:26.982Z,64.11
2023-05-18T03:33:54.578Z,62.96
2023-05-18T03:36:22.860Z,63.53
2023-05-18T03:38:50.296Z,62.76
2023-05-18T03:41:19.301Z,63.00
2023-05-18T03:43:46.952Z,63.42
2023-05-18T03:46:14.533Z,64.48
2023-05-18T03:48:41.956Z,62.64
2023-05-18T03:51:09.543Z,60.50
2023-05-18T03:53:37.154Z,61.76
2023-05-18T03:56:04.700Z,60.68
2023-05-18T03:58:33.516Z,58.99
2023-05-18T04:01:01.442Z,57.25
2023-05-18T04:03:30.663Z,54.82
2023-05-18T04:05:58.279Z,52.52
2023-05-18T04:08:26.165Z,51.48
2023-05-18T04:10:53.802Z,46.56
2023-05-18T04:13:21.287Z,45.85
2023-05-18T04:15:50.237Z,47.60
2023-05-18T04:18:17.818Z,48.74
2023-05-18T04:20:46.047Z,49.30
2023-05-18T04:23:13.850Z,46.91
2023-05-18T04:25:41.576Z,43.38
2023-05-18T04:28:09.823Z,45.02
2023-05-18T04:30:38.893Z,44.70
2023-05-18T04:33:07.813Z,46.10
2023-05-18T04:35:36.102Z,48.77
2023-05-18T04:38:05.119Z,48.36
2023-05-18T04:40:33.908Z,51.49
2023-05-18T04:43:01.712Z,54.62
2023-05-18T04:45:30.158Z,56.34
2023-05-18T04:47:58.832Z,55.65
2023-05-18T04:50:28.129Z,57.95
2023-05-18T04:52:58.191Z,57.76
2023-05-18T04:55:27.445Z,60.89
2023-05-18T04:57:56.876Z,60.32
2023-05-18T05:00:26.438Z,62.92
2023-05-18T05:02:54.490Z,62.03
2023-05-18T05:05:23.802Z,63.33
2023-05-18T05:07:53.180Z,62.89
2023-05-18T05:10:21.096Z,62.86
2023-05-18T05:12:50.036Z,60.85
2023-05-18T05:15:17.733Z,60.23
2023-05-18T05:17:45.303Z,60.73
2023-05-18T05:20:13.351Z,63.72
2023-05-18T05:22:40.947Z,62.31
2023-05-18T05:25:10.211Z,62.55
2023-05-18T05:27:37.844Z,61.04
2023-05-18T05:30:06.196Z,61.43
2023-05-18T05:32:33.826Z,61.72
2023-05-18T05:35:01.381Z,62.21
2023-05-18T05:37:29.288Z,62.40
2023-05-18T05:39:57.471Z,59.91
2023-05-18T05:42:26.835Z,62.01
2023-05-18T05:44:54.361Z,65.07
2023-05-18T05:47:22.091Z,62.66
2023-05-18T05:49:49.591Z,62.16
2023-05-18T05:52:17.052Z,62.40
2023-05-18T05:54:44.607Z,58.58
2023-05-18T05:57:12.190Z,52.49
2023-05-18T05:59:40.964Z,48.65
2023-05-18T06:02:11.387Z,49.21
2023-05-18T06:04:39.100Z,52.32
2023-05-18T06:07:06.856Z,56.13
2023-05-18T06:09:34.443Z,57.69
2023-05-18T06:12:02.191Z,56.31
2023-05-18T06:14:29.752Z,55.77
2023-05-18T06:16:58.869Z,54.00
2023-05-18T06:19:26.432Z,56.04
2023-05-18T06:21:53.991Z,56.99
2023-05-18T06:24:21.517Z,56.54
2023-05-18T06:26:49.037Z,56.29
2023-05-18T06:29:16.563Z,58.40
2023-05-18T06:31:44.079Z,55.50
2023-05-18T06:34:12.940Z,56.90
2023-05-18T06:36:40.429Z,55.72
2023-05-18T06:39:07.926Z,54.46
2023-05-18T06:41:35.738Z,54.50
2023-05-18T06:44:03.255Z,54.79
2023-05-18T06:46:30.841Z,54.03
2023-05-18T06:48:58.390Z,52.88
2023-05-18T06:51:27.170Z,56.31
2023-05-18T06:53:54.736Z,57.52
2023-05-18T06:56:22.421Z,56.20
2023-05-18T06:58:49.883Z,57.93
2023-05-18T07:01:19.397Z,57.70
2023-05-18T07:03:47.152Z,57.13
2023-05-18T07:06:14.801Z,57.30
2023-05-18T07:08:45.416Z,55.25
2023-05-18T07:11:12.907Z,56.03
2023-05-18T07:13:40.438Z,54.05
2023-05-18T07:16:08.038Z,53.44
2023-05-18T07:18:35.728Z,53.80
2023-05-18T07:21:03.418Z,56.05
2023-05-18T07:23:31.159Z,56.66
2023-05-18T07:25:59.919Z,56.80
2023-05-18T07:28:27.487Z,55.14
2023-05-18T07:30:54.902Z,56.38
2023-05-18T07:33:22.342Z,54.84
2023-05-18T07:35:49.833Z,51.94
2023-05-18T07:38:17.267Z,50.34
2023-05-18T07:40:44.715Z,53.63
2023-05-18T07:43:13.491Z,56.69
2023-05-18T07:45:40.979Z,52.41
2023-05-18T07:48:08.766Z,51.14
2023-05-18T07:50:36.285Z,51.70
2023-05-18T07:53:03.803Z,49.62
2023-05-18T07:55:31.930Z,50.62
2023-05-18T07:58:01.021Z,50.40
2023-05-18T08:00:30.094Z,53.64
2023-05-18T08:02:57.922Z,53.89
2023-05-18T08:05:25.523Z,54.07
2023-05-18T08:07:53.152Z,54.91
2023-05-18T08:10:20.607Z,53.43
2023-05-18T08:12:48.096Z,52.78
2023-05-18T08:15:15.541Z,52.11
2023-05-18T08:17:44.384Z,50.91
2023-05-18T08:20:12.743Z,50.98
2023-05-18T08:22:40.206Z,51.28
2023-05-18T08:25:10.144Z,50.73
2023-05-18T08:27:37.610Z,50.98
2023-05-18T08:30:05.578Z,50.94
2023-05-18T08:32:33.069Z,50.89
2023-05-18T08:35:01.836Z,55.33
2023-05-18T08:37:29.640Z,55.38
2023-05-18T08:39:57.286Z,52.44
2023-05-18T08:42:41.648Z,52.90
2023-05-18T08:45:22.521Z,52.29
2023-05-18T08:47:50.955Z,51.21
2023-05-18T08:50:24.313Z,53.61
2023-05-18T08:52:55.971Z,48.10
2023-05-18T08:55:24.528Z,49.81
2023-05-18T08:57:56.143Z,49.78
2023-05-18T09:00:24.973Z,49.90
2023-05-18T09:02:53.172Z,51.38
2023-05-18T09:05:23.966Z,53.10
2023-05-18T09:07:51.925Z,51.95
2023-05-18T09:10:19.670Z,52.03
2023-05-18T09:12:50.062Z,52.88
2023-05-18T09:15:18.404Z,53.05
2023-05-18T09:17:46.023Z,54.32
2023-05-18T09:20:13.959Z,54.53
2023-05-18T09:22:42.993Z,53.83
2023-05-18T09:25:11.838Z,52.04
2023-05-18T09:27:39.688Z,52.27
2023-05-18T09:30:11.916Z,52.05
2023-05-18T09:32:39.833Z,52.79
2023-05-18T09:35:09.066Z,49.95
2023-05-18T09:37:37.156Z,49.54
2023-05-18T09:40:08.032Z,49.59
2023-05-18T09:42:39.144Z,49.25
2023-05-18T09:45:17.363Z,48.05
2023-05-18T09:47:44.962Z,48.63
2023-05-18T09:50:13.063Z,49.13
2023-05-18T09:52:44.131Z,51.55
2023-05-18T09:55:13.720Z,48.31
2023-05-18T09:57:42.692Z,50.54
2023-05-18T10:00:12.515Z,49.10
2023-05-18T10:02:41.493Z,49.29
2023-05-18T10:05:20.085Z,48.84
2023-05-18T10:07:48.533Z,49.69
2023-05-18T10:10:21.036Z,50.39
2023-05-18T10:12:48.988Z,50.52
2023-05-18T10:15:17.654Z,49.50
2023-05-18T10:17:45.727Z,49.09
2023-05-18T10:20:18.705Z,49.75
2023-05-18T10:22:47.929Z,49.00
2023-05-18T10:25:21.809Z,49.15
2023-05-18T10:27:50.805Z,46.69
2023-05-18T10:30:18.736Z,46.36
2023-05-18T10:32:46.921Z,47.60
2023-05-18T10:35:15.302Z,48.51
2023-05-18T10:37:47.810Z,49.50
2023-05-18T10:40:15.760Z,49.35
2023-05-18T10:42:46.846Z,48.74
2023-05-18T10:45:16.323Z,48.37
2023-05-18T10:47:45.379Z,47.29
2023-05-18T10:50:13.709Z,46.45
2023-05-18T10:52:42.382Z,47.26
2023-05-18T10:55:10.450Z,46.84
2023-05-18T10:57:43.996Z,48.45
2023-05-18T11:00:14.451Z,47.86
2023-05-18T11:02:43.317Z,45.57
2023-05-18T11:05:12.342Z,48.20
2023-05-18T11:07:40.488Z,45.37
2023-05-18T11:10:10.761Z,46.13
2023-05-18T11:12:39.285Z,45.58
2023-05-18T11:15:08.291Z,45.05
2023-05-18T11:17:37.104Z,45.31
2023-05-18T11:20:26.184Z,43.41
2023-05-18T11:23:03.520Z,42.86
2023-05-18T11:25:43.315Z,43.24
2023-05-18T11:28:13.682Z,44.82
2023-05-18T11:30:48.204Z,45.21
2023-05-18T11:33:19.325Z,43.54
2023-05-18T11:36:01.612Z,45.04
2023-05-18T11:38:48.451Z,45.11
2023-05-18T11:41:34.155Z,44.25
2023-05-18T11:44:17.232Z,44.29
2023-05-18T11:46:56.338Z,45.97
2023-05-18T11:49:26.521Z,45.49
2023-05-18T11:52:06.094Z,44.92
2023-05-18T11:54:41.993Z,45.19
2023-05-18T11:57:11.130Z,43.26
2023-05-18T11:59:40.443Z,43.88
2023-05-18T12:02:11.371Z,42.54
2023-05-18T12:04:53.652Z,41.53
2023-05-18T12:07:22.458Z,42.03
2023-05-18T12:09:50.321Z,42.90
2023-05-18T12:12:20.255Z,43.93
2023-05-18T12:14:54.912Z,42.79
2023-05-18T12:17:23.410Z,44.97
2023-05-18T12:19:52.243Z,45.36
2023-05-18T12:22:19.962Z,44.07
2023-05-18T12:24:47.437Z,43.41
2023-05-18T12:27:14.942Z,44.51
2023-05-18T12:29:43.316Z,44.80
2023-05-18T12:32:12.445Z,44.32
2023-05-18T12:34:40.889Z,44.46
2023-05-18T12:37:09.695Z,44.90
2023-05-18T12:39:37.542Z,45.41
2023-05-18T12:42:15.528Z,45.54
2023-05-18T12:44:46.562Z,45.68
2023-05-18T12:47:15.144Z,45.71
2023-05-18T12:49:44.625Z,43.94
2023-05-18T12:52:14.656Z,44.04
2023-05-18T12:54:58.490Z,43.22
2023-05-18T12:57:26.997Z,42.95
2023-05-18T12:59:55.335Z,43.16
2023-05-18T13:02:33.944Z,43.76
2023-05-18T13:05:09.623Z,43.99
2023-05-18T13:07:40.494Z,46.18
2023-05-18T13:10:10.456Z,45.44
2023-05-18T13:12:43.848Z,43.95
2023-05-18T13:15:16.713Z,44.41
2023-05-18T13:18:00.365Z,42.61
2023-05-18T13:20:35.801Z,43.07
2023-05-18T13:23:06.182Z,43.21
2023-05-18T13:25:33.844Z,43.03
2023-05-18T13:28:02.031Z,42.67
2023-05-18T13:30:29.838Z,44.55
2023-05-18T13:32:58.337Z,45.07
2023-05-18T13:35:25.883Z,45.83
2023-05-18T13:37:54.085Z,43.93
2023-05-18T13:40:25.566Z,44.31
2023-05-18T13:42:53.735Z,44.70
2023-05-18T13:45:22.390Z,44.92
2023-05-18T13:47:51.650Z,43.50
2023-05-18T13:50:19.514Z,43.14
2023-05-18T13:52:47.499Z,44.05
2023-05-18T13:55:15.066Z,43.73
2023-05-18T13:57:45.345Z,44.18
2023-05-18T14:00:13.989Z,43.66
2023-05-18T14:02:42.020Z,42.94
2023-05-18T14:05:10.072Z,41.67
2023-05-18T14:07:37.828Z,42.34
2023-05-18T14:10:06.180Z,44.38
2023-05-18T14:12:34.006Z,44.47
2023-05-18T14:15:03.462Z,43.40
2023-05-18T14:17:30.998Z,43.72
2023-05-18T14:19:58.998Z,43.56
2023-05-18T14:22:27.413Z,42.74
2023-05-18T14:24:54.930Z,43.23
2023-05-18T14:27:22.557Z,43.44
2023-05-18T14:29:51.548Z,44.01
2023-05-18T14:32:21.589Z,44.41
2023-05-18T14:34:51.580Z,43.49
2023-05-18T14:37:19.240Z,43.80
2023-05-18T14:39:46.750Z,43.22
2023-05-18T14:42:14.323Z,43.31
2023-05-18T14:44:41.753Z,43.29
2023-05-18T14:47:10.300Z,43.42
2023-05-18T14:49:39.660Z,43.10
2023-05-18T14:52:07.522Z,42.89
2023-05-18T14:54:35.016Z,42.39
2023-05-18T14:57:02.488Z,41.43
2023-05-18T14:59:29.975Z,42.12
2023-05-18T15:01:57.469Z,42.83
2023-05-18T15:04:25.788Z,42.78
2023-05-18T15:06:54.616Z,42.35
2023-05-18T15:09:22.762Z,43.05
2023-05-18T15:11:52.196Z,43.86
2023-05-18T15:14:20.092Z,42.34
2023-05-18T15:16:47.640Z,41.54
2023-05-18T15:19:15.285Z,41.36
2023-05-18T15:21:44.754Z,41.81
2023-05-18T15:24:13.549Z,42.47
2023-05-18T15:26:41.927Z,41.80
2023-05-18T15:29:09.986Z,42.75
2023-05-18T15:31:39.789Z,41.49
2023-05-18T15:34:07.443Z,42.19
2023-05-18T15:36:36.325Z,42.26
2023-05-18T15:39:04.887Z,42.48
2023-05-18T15:41:34.823Z,42.65
2023-05-18T15:44:02.806Z,43.69
2023-05-18T15:46:33.113Z,44.69
2023-05-18T15:49:00.903Z,44.36
2023-05-18T15:51:28.441Z,43.66
2023-05-18T15:53:55.978Z,43.40
2023-05-18T15:56:23.629Z,43.60
2023-05-18T15:58:52.432Z,43.82
2023-05-18T16:01:19.992Z,44.50
2023-05-18T16:03:47.578Z,44.04
2023-05-18T16:06:15.103Z,43.43
2023-05-18T16:08:42.571Z,44.34
2023-05-18T16:11:10.035Z,43.73
2023-05-18T16:13:37.522Z,43.07
2023-05-18T16:16:08.849Z,43.55
2023-05-18T16:18:36.466Z,43.40
2023-05-18T16:21:04.044Z,43.14
2023-05-18T16:23:31.497Z,43.19
2023-05-18T16:25:59.889Z,44.32
2023-05-18T16:28:27.354Z,43.05
2023-05-18T16:30:54.816Z,44.14
2023-05-18T16:33:25.824Z,44.00
2023-05-18T16:35:53.569Z,43.80
2023-05-18T16:38:21.016Z,44.16
2023-05-18T16:40:48.432Z,44.24
2023-05-18T16:43:15.859Z,43.58
2023-05-18T16:45:43.381Z,44.27
2023-05-18T16:48:11.209Z,44.23
2023-05-18T16:50:40.049Z,43.26
2023-05-18T16:53:07.470Z,43.42
2023-05-18T16:55:34.922Z,42.73
2023-05-18T16:58:02.606Z,42.37
2023-05-18T17:00:30.522Z,42.37
2023-05-18T17:02:58.310Z,42.59
2023-05-18T17:05:26.520Z,43.97
2023-05-18T17:07:55.420Z,44.71
2023-05-18T17:10:23.124Z,43.79
2023-05-18T17:12:51.115Z,44.68
2023-05-18T17:15:18.581Z,43.06
2023-05-18T17:17:46.133Z,44.63
2023-05-18T17:20:13.605Z,44.97
2023-05-18T17:22:41.078Z,44.90
2023-05-18T17:25:10.474Z,43.57
2023-05-18T17:27:37.937Z,44.79
2023-05-18T17:30:06.606Z,44.75
2023-05-18T17:32:34.163Z,44.66
2023-05-18T17:35:02.011Z,44.71
2023-05-18T17:37:29.443Z,44.20
2023-05-18T17:39:56.930Z,43.38
2023-05-18T17:42:25.844Z,44.95
2023-05-18T17:44:53.278Z,45.24
2023-05-18T17:47:21.986Z,45.16
2023-05-18T17:49:49.660Z,46.07
2023-05-18T17:52:17.143Z,45.29
2023-05-18T17:54:44.622Z,46.28
2023-05-18T17:57:12.127Z,45.54
2023-05-18T17:59:40.990Z,45.38
2023-05-18T18:02:08.445Z,44.85
2023-05-18T18:04:35.894Z,43.74
2023-05-18T18:07:03.420Z,43.05
2023-05-18T18:09:31.098Z,44.81
2023-05-18T18:12:00.519Z,44.93
2023-05-18T18:14:27.961Z,43.66
2023-05-18T18:16:59.095Z,43.39
2023-05-18T18:19:27.385Z,43.53
2023-05-18T18:21:55.581Z,42.67
2023-05-18T18:24:23.725Z,43.52
2023-05-18T18:26:52.681Z,43.06
2023-05-18T18:29:20.210Z,42.86
2023-05-18T18:31:47.677Z,43.04
2023-05-18T18:34:16.417Z,42.56
2023-05-18T18:36:43.878Z,43.70
2023-05-18T18:39:11.315Z,43.54
2023-05-18T18:41:38.754Z,43.99
2023-05-18T18:44:06.420Z,44.05
2023-05-18T18:46:34.162Z,44.10
2023-05-18T18:49:01.664Z,45.06
2023-05-18T18:51:31.216Z,44.41
2023-05-18T18:53:58.651Z,45.19
2023-05-18T18:56:27.388Z,45.82
2023-05-18T18:58:54.847Z,44.73
2023-05-18T19:01:22.332Z,45.05
2023-05-18T19:03:49.979Z,44.56
2023-05-18T19:06:17.505Z,44.85
2023-05-18T19:08:46.344Z,45.00
2023-05-18T19:11:13.796Z,45.68
2023-05-18T19:13:41.220Z,45.34
2023-05-18T19:16:08.900Z,45.17
2023-05-18T19:18:36.535Z,45.45
2023-05-18T19:21:04.243Z,45.43
2023-05-18T19:23:31.820Z,45.05
2023-05-18T19:26:02.119Z,45.24
2023-05-18T19:28:29.565Z,45.50
2023-05-18T19:30:57.010Z,45.95
2023-05-18T19:33:24.663Z,45.87
2023-05-18T19:35:52.870Z,46.54
2023-05-18T19:38:20.366Z,46.36
2023-05-18T19:40:47.948Z,46.43
2023-05-18T19:43:17.014Z,45.43
2023-05-18T19:45:44.489Z,46.04
2023-05-18T19:48:13.873Z,45.67
2023-05-18T19:50:41.313Z,45.36
2023-05-18T19:53:08.803Z,45.81
2023-05-18T19:55:36.369Z,46.60
2023-05-18T19:58:03.841Z,48.88
2023-05-18T20:00:33.206Z,51.63
2023-05-18T20:03:02.406Z,53.51
2023-05-18T20:05:30.185Z,53.77
2023-05-18T20:07:58.304Z,55.05
2023-05-18T20:10:26.077Z,56.04
2023-05-18T20:12:53.532Z,57.85
2023-05-18T20:15:20.960Z,58.68
2023-05-18T20:17:49.892Z,58.45
2023-05-18T20:20:19.956Z,59.73
2023-05-18T20:22:47.834Z,60.79
2023-05-18T20:25:15.438Z,61.16
2023-05-18T20:27:42.897Z,59.68
2023-05-18T20:30:11.490Z,61.70
2023-05-18T20:32:39.057Z,63.95
2023-05-18T20:35:08.260Z,67.81
2023-05-18T20:37:35.735Z,64.64
2023-05-18T20:40:08.800Z,63.95
2023-05-18T20:42:40.216Z,65.21
2023-05-18T20:45:08.398Z,64.86
2023-05-18T20:47:36.442Z,64.72
2023-05-18T20:50:04.386Z,65.86
2023-05-18T20:52:33.149Z,64.35
2023-05-18T20:55:00.614Z,62.48
2023-05-18T20:57:29.982Z,61.02
2023-05-18T20:59:57.439Z,62.10
2023-05-18T21:02:24.988Z,64.17
2023-05-18T21:04:52.488Z,64.16
2023-05-18T21:07:21.219Z,64.49
2023-05-18T21:09:50.618Z,62.47
2023-05-18T21:12:18.140Z,62.33
2023-05-18T21:14:45.763Z,61.32
2023-05-18T21:17:15.229Z,64.09
2023-05-18T21:19:42.775Z,64.78
2023-05-18T21:22:11.587Z,63.09
2023-05-18T21:24:39.038Z,63.70
2023-05-18T21:27:08.098Z,63.09
2023-05-18T21:29:35.667Z,63.19
2023-05-18T21:32:03.357Z,64.95
2023-05-18T21:34:30.849Z,65.01
2023-05-18T21:36:58.481Z,63.42
2023-05-18T21:39:25.928Z,64.16
2023-05-18T21:41:53.394Z,65.14
2023-05-18T21:44:22.274Z,62.97
2023-05-18T21:46:54.859Z,62.14
2023-05-18T21:49:22.335Z,62.86
2023-05-18T21:51:49.884Z,63.83
2023-05-18T21:54:18.536Z,62.86
2023-05-18T21:56:46.274Z,62.29
2023-05-18T21:59:13.759Z,63.12
2023-05-18T22:01:42.654Z,63.02
2023-05-18T22:04:10.154Z,61.36
2023-05-18T22:06:37.644Z,61.13
2023-05-18T22:09:06.068Z,62.91
2023-05-18T22:11:33.603Z,62.17
2023-05-18T22:14:01.764Z,61.95
2023-05-18T22:16:29.287Z,62.60
2023-05-18T22:18:58.256Z,60.36
2023-05-18T22:21:25.729Z,62.39
2023-05-18T22:23:53.152Z,61.79
2023-05-18T22:26:20.940Z,61.77
2023-05-18T22:28:48.503Z,63.53
2023-05-18T22:31:16.059Z,62.28
2023-05-18T22:33:43.490Z,62.41
2023-05-18T22:36:12.244Z,63.45
2023-05-18T22:38:43.148Z,61.86
2023-05-18T22:41:10.719Z,63.77
2023-05-18T22:43:38.165Z,64.64
2023-05-18T22:46:05.834Z,65.29
2023-05-18T22:48:34.804Z,65.50
2023-05-18T22:51:04.117Z,61.84
2023-05-18T22:53:33.030Z,60.86
2023-05-18T22:56:00.636Z,61.16
2023-05-18T22:58:28.353Z,62.77
2023-05-18T23:00:56.028Z,61.88
2023-05-18T23:03:23.872Z,64.45
2023-05-18T23:05:51.371Z,63.91
2023-05-18T23:08:20.325Z,64.20
2023-05-18T23:10:50.638Z,63.15
2023-05-18T23:13:19.613Z,64.06
2023-05-18T23:15:47.772Z,64.28
2023-05-18T23:18:15.448Z,61.63
2023-05-18T23:20:42.930Z,63.27
2023-05-18T23:23:10.550Z,65.83
2023-05-18T23:25:38.030Z,62.65
2023-05-18T23:28:06.862Z,62.01
2023-05-18T23:30:34.314Z,61.40
2023-05-18T23:33:02.515Z,62.17
2023-05-18T23:35:30.910Z,64.84
2023-05-18T23:38:02.025Z,63.65
2023-05-18T23:40:30.183Z,61.39
2023-05-18T23:42:58.328Z,62.95
2023-05-18T23:45:27.959Z,62.50
2023-05-18T23:47:56.724Z,60.84
2023-05-18T23:50:24.740Z,63.13
2023-05-18T23:52:53.994Z,62.46
2023-05-18T23:55:24.006Z,60.97
2023-05-18T23:57:52.049Z,60.74
